createdAt,value
2017-08-24T00:00:08.926Z,70.50
2017-08-24T00:02:36.421Z,70.40
2017-08-24T00:05:03.868Z,70.50
2017-08-24T00:07:31.346Z,70.60
2017-08-24T00:09:58.837Z,70.50
2017-08-24T00:12:26.317Z,70.50
2017-08-24T00:14:53.833Z,70.60
2017-08-24T00:17:21.340Z,70.70
2017-08-24T00:19:48.843Z,70.70
2017-08-24T00:22:16.333Z,70.70
2017-08-24T00:24:43.847Z,70.80
2017-08-24T00:27:11.309Z,70.80
2017-08-24T00:29:38.805Z,70.80
2017-08-24T00:32:06.339Z,70.80
2017-08-24T00:34:33.889Z,70.90
2017-08-24T00:37:01.388Z,71.00
2017-08-24T00:39:28.862Z,70.90
2017-08-24T00:41:56.340Z,70.80
2017-08-24T00:44:24.035Z,70.70
2017-08-24T00:46:51.542Z,70.60
2017-08-24T00:49:19.046Z,70.70
2017-08-24T00:51:46.780Z,70.70
2017-08-24T00:54:15.865Z,70.70
2017-08-24T00:56:43.334Z,70.80
2017-08-24T00:59:10.923Z,71.00
2017-08-24T01:01:38.452Z,71.10
2017-08-24T01:04:07.134Z,71.10
2017-08-24T01:06:34.831Z,70.80
2017-08-24T01:09:02.302Z,70.80
2017-08-24T01:11:29.864Z,70.90
2017-08-24T01:13:57.381Z,70.90
2017-08-24T01:16:24.840Z,70.90
2017-08-24T01:18:52.593Z,70.80
2017-08-24T01:21:20.493Z,70.90
2017-08-24T01:23:48.001Z,70.90
2017-08-24T01:26:15.488Z,70.90
2017-08-24T01:28:44.520Z,71.10
2017-08-24T01:31:12.011Z,71.00
2017-08-24T01:33:39.479Z,71.30
2017-08-24T01:36:07.003Z,71.50
2017-08-24T01:38:34.500Z,71.40
2017-08-24T01:41:02.005Z,71.50
2017-08-24T01:43:29.518Z,71.60
2017-08-24T01:45:57.011Z,71.60
2017-08-24T01:48:24.489Z,71.60
2017-08-24T01:50:51.976Z,71.60
2017-08-24T01:53:19.520Z,71.80
2017-08-24T01:55:47.001Z,71.80
2017-08-24T01:58:15.366Z,71.80
2017-08-24T02:00:42.863Z,71.80
2017-08-24T02:03:10.363Z,71.90
2017-08-24T02:05:37.848Z,72.00
2017-08-24T02:08:05.349Z,71.90
2017-08-24T02:10:32.880Z,71.90
2017-08-24T02:13:01.204Z,72.00
2017-08-24T02:15:28.704Z,72.10
2017-08-24T02:17:56.199Z,72.10
2017-08-24T02:20:23.708Z,72.10
2017-08-24T02:22:51.193Z,72.20
2017-08-24T02:25:18.663Z,72.20
2017-08-24T02:27:48.131Z,72.20
2017-08-24T02:30:15.583Z,72.30
2017-08-24T02:32:43.472Z,72.30
2017-08-24T02:35:11.225Z,72.30
2017-08-24T02:37:38.808Z,72.40
2017-08-24T02:40:06.273Z,72.30
2017-08-24T02:42:33.757Z,72.40
2017-08-24T02:45:01.226Z,72.30
2017-08-24T02:47:28.719Z,72.30
2017-08-24T02:49:56.460Z,72.40
2017-08-24T02:52:23.950Z,72.30
2017-08-24T02:54:51.433Z,72.40
2017-08-24T02:57:18.933Z,72.30
2017-08-24T02:59:47.260Z,72.40
2017-08-24T03:02:14.772Z,72.40
2017-08-24T03:04:42.646Z,72.50
2017-08-24T03:07:10.150Z,72.50
2017-08-24T03:09:37.661Z,72.50
2017-08-24T03:12:05.144Z,72.40
2017-08-24T03:14:32.630Z,72.40
2017-08-24T03:17:00.114Z,72.40
2017-08-24T03:19:27.633Z,72.30
2017-08-24T03:21:55.527Z,72.40
2017-08-24T03:24:23.098Z,72.40
2017-08-24T03:26:50.824Z,72.40
2017-08-24T03:29:18.269Z,72.50
2017-08-24T03:31:45.716Z,72.60
2017-08-24T03:34:13.211Z,72.70
2017-08-24T03:36:40.708Z,72.60
2017-08-24T03:39:08.200Z,72.40
2017-08-24T03:41:35.706Z,72.70
2017-08-24T03:44:03.167Z,72.30
2017-08-24T03:46:30.655Z,72.30
2017-08-24T03:48:58.141Z,72.20
2017-08-24T03:51:25.682Z,72.40
2017-08-24T03:53:54.018Z,72.30
2017-08-24T03:56:21.540Z,72.20
2017-08-24T03:58:49.053Z,72.20
2017-08-24T04:01:16.607Z,72.20
2017-08-24T04:03:44.111Z,72.30
2017-08-24T04:06:12.647Z,72.30
2017-08-24T04:08:41.046Z,72.30
2017-08-24T04:11:08.506Z,72.40
2017-08-24T04:13:35.966Z,72.40
2017-08-24T04:16:03.450Z,72.50
2017-08-24T04:18:30.948Z,72.60
2017-08-24T04:20:58.441Z,72.70
2017-08-24T04:23:25.933Z,72.80
2017-08-24T04:25:53.506Z,72.90
2017-08-24T04:28:20.977Z,73.00
2017-08-24T04:30:48.456Z,72.90
2017-08-24T04:33:16.059Z,72.90
2017-08-24T04:35:43.525Z,73.10
2017-08-24T04:38:11.035Z,73.10
2017-08-24T04:40:38.621Z,73.20
2017-08-24T04:43:06.116Z,73.30
2017-08-24T04:45:33.681Z,73.20
2017-08-24T04:48:01.353Z,73.20
2017-08-24T04:50:28.834Z,73.10
2017-08-24T04:52:56.316Z,73.10
2017-08-24T04:55:23.839Z,73.20
2017-08-24T04:57:51.292Z,73.30
2017-08-24T05:00:18.843Z,73.40
2017-08-24T05:02:46.352Z,73.30
2017-08-24T05:05:13.896Z,73.10
2017-08-24T05:07:41.667Z,73.00
2017-08-24T05:10:09.261Z,73.10
2017-08-24T05:12:36.704Z,73.30
2017-08-24T05:15:04.621Z,73.50
2017-08-24T05:17:32.722Z,73.50
2017-08-24T05:20:00.198Z,73.30
2017-08-24T05:22:27.717Z,73.10
2017-08-24T05:24:55.635Z,73.10
2017-08-24T05:27:23.118Z,73.20
2017-08-24T05:29:50.606Z,73.00
2017-08-24T05:32:18.094Z,73.20
2017-08-24T05:34:45.554Z,73.20
2017-08-24T05:37:13.037Z,73.20
2017-08-24T05:39:41.504Z,73.20
2017-08-24T05:42:08.984Z,73.30
2017-08-24T05:44:36.475Z,73.30
2017-08-24T05:47:04.024Z,73.50
2017-08-24T05:49:31.477Z,73.60
2017-08-24T05:51:58.923Z,73.60
2017-08-24T05:54:26.409Z,73.60
2017-08-24T05:56:53.891Z,73.40
2017-08-24T05:59:21.387Z,73.50
2017-08-24T06:01:48.878Z,73.80
2017-08-24T06:04:16.375Z,74.10
2017-08-24T06:06:44.209Z,74.20
2017-08-24T06:09:11.884Z,74.60
2017-08-24T06:11:39.382Z,74.80
2017-08-24T06:14:06.891Z,74.90
2017-08-24T06:16:34.488Z,75.00
2017-08-24T06:19:02.245Z,75.60
2017-08-24T06:21:29.713Z,75.80
2017-08-24T06:23:57.215Z,75.50
2017-08-24T06:26:24.640Z,75.20
2017-08-24T06:28:52.158Z,75.30
2017-08-24T06:31:19.676Z,75.20
2017-08-24T06:33:47.158Z,75.10
2017-08-24T06:36:14.652Z,74.90
2017-08-24T06:38:42.195Z,75.10
2017-08-24T06:41:09.765Z,75.00
2017-08-24T06:43:37.462Z,75.10
2017-08-24T06:46:05.318Z,75.20
2017-08-24T06:48:32.774Z,74.90
2017-08-24T06:51:00.264Z,74.80
2017-08-24T06:53:28.911Z,74.80
2017-08-24T06:55:56.761Z,74.70
2017-08-24T06:58:24.242Z,74.70
2017-08-24T07:00:51.734Z,74.20
2017-08-24T07:03:19.258Z,73.80
2017-08-24T07:05:48.194Z,73.90
2017-08-24T07:08:15.839Z,73.10
2017-08-24T07:10:43.371Z,72.90
2017-08-24T07:13:10.954Z,72.00
2017-08-24T07:15:38.471Z,72.10
2017-08-24T07:18:05.940Z,71.60
2017-08-24T07:20:33.454Z,71.40
2017-08-24T07:23:00.930Z,71.30
2017-08-24T07:25:28.442Z,71.20
2017-08-24T07:27:55.928Z,71.40
2017-08-24T07:30:23.434Z,71.40
2017-08-24T07:32:50.928Z,71.40
2017-08-24T07:35:18.391Z,71.40
2017-08-24T07:37:46.575Z,70.50
2017-08-24T07:40:14.009Z,70.60
2017-08-24T07:42:41.497Z,70.70
2017-08-24T07:45:09.812Z,71.00
2017-08-24T07:47:37.274Z,70.90
2017-08-24T07:50:04.686Z,70.40
2017-08-24T07:52:32.231Z,70.20
2017-08-24T07:54:59.918Z,70.00
2017-08-24T07:57:27.511Z,69.60
2017-08-24T07:59:55.144Z,68.90
2017-08-24T08:02:22.625Z,68.90
2017-08-24T08:04:50.149Z,68.00
2017-08-24T08:07:17.605Z,63.70
2017-08-24T08:09:45.200Z,63.30
2017-08-24T08:12:12.723Z,62.20
2017-08-24T08:14:40.163Z,60.50
2017-08-24T08:17:07.627Z,60.40
2017-08-24T08:19:35.593Z,60.30
2017-08-24T08:22:03.082Z,59.20
2017-08-24T08:24:30.543Z,59.00
2017-08-24T08:26:58.165Z,58.80
2017-08-24T08:29:25.627Z,58.90
2017-08-24T08:31:53.106Z,59.00
2017-08-24T08:34:20.655Z,58.50
2017-08-24T08:36:48.238Z,58.30
2017-08-24T08:39:15.700Z,58.00
2017-08-24T08:41:43.201Z,57.90
2017-08-24T08:44:10.807Z,57.50
2017-08-24T08:46:38.279Z,57.40
2017-08-24T08:49:06.006Z,58.00
2017-08-24T08:51:33.768Z,58.20
2017-08-24T08:54:01.244Z,58.20
2017-08-24T08:56:29.249Z,58.60
2017-08-24T08:58:56.744Z,58.60
2017-08-24T09:01:24.299Z,58.20
2017-08-24T09:03:51.767Z,58.70
2017-08-24T09:06:19.273Z,58.80
2017-08-24T09:08:46.793Z,57.50
2017-08-24T09:11:14.219Z,58.10
2017-08-24T09:13:41.683Z,57.80
2017-08-24T09:16:09.603Z,57.60
2017-08-24T09:18:37.373Z,57.60
2017-08-24T09:21:04.914Z,58.00
2017-08-24T09:23:32.705Z,57.20
2017-08-24T09:26:00.221Z,56.50
2017-08-24T09:28:27.691Z,57.00
2017-08-24T09:30:55.305Z,57.20
2017-08-24T09:33:22.769Z,58.00
2017-08-24T09:35:50.215Z,57.70
2017-08-24T09:38:17.764Z,57.80
2017-08-24T09:40:45.233Z,58.10
2017-08-24T09:43:12.779Z,58.10
2017-08-24T09:45:40.253Z,57.90
2017-08-24T09:48:08.248Z,57.20
2017-08-24T09:50:35.697Z,56.10
2017-08-24T09:53:03.542Z,55.20
2017-08-24T09:55:31.019Z,55.40
2017-08-24T09:57:58.546Z,54.90
2017-08-24T10:00:26.072Z,53.70
2017-08-24T10:02:53.552Z,53.40
2017-08-24T10:05:21.089Z,53.80
2017-08-24T10:07:48.593Z,53.00
2017-08-24T10:10:16.029Z,53.10
2017-08-24T10:12:43.541Z,53.40
2017-08-24T10:15:11.011Z,52.60
2017-08-24T10:17:38.603Z,53.00
2017-08-24T10:20:06.277Z,53.40
2017-08-24T10:22:33.736Z,53.50
2017-08-24T10:25:01.276Z,53.40
2017-08-24T10:27:28.934Z,53.50
2017-08-24T10:29:56.426Z,54.00
2017-08-24T10:32:23.894Z,54.20
2017-08-24T10:34:51.389Z,54.20
2017-08-24T10:37:18.859Z,55.10
2017-08-24T10:39:46.361Z,54.30
2017-08-24T10:42:13.816Z,53.80
2017-08-24T10:44:41.377Z,53.70
2017-08-24T10:47:09.133Z,53.70
2017-08-24T10:49:36.593Z,53.40
2017-08-24T10:52:04.156Z,53.60
2017-08-24T10:54:31.736Z,53.30
2017-08-24T10:56:59.200Z,53.50
2017-08-24T10:59:26.675Z,52.90
2017-08-24T11:01:54.199Z,52.20
2017-08-24T11:04:21.671Z,51.90
2017-08-24T11:06:49.201Z,53.20
2017-08-24T11:09:16.905Z,53.40
2017-08-24T11:11:44.360Z,53.60
2017-08-24T11:14:11.872Z,52.40
2017-08-24T11:16:39.573Z,52.80
2017-08-24T11:19:07.050Z,52.40
2017-08-24T11:21:34.468Z,53.40
2017-08-24T11:24:02.006Z,52.60
2017-08-24T11:26:29.540Z,53.00
2017-08-24T11:28:57.038Z,52.10
2017-08-24T11:31:24.580Z,53.20
2017-08-24T11:33:52.050Z,51.10
2017-08-24T11:36:19.904Z,52.30
2017-08-24T11:38:47.563Z,52.30
2017-08-24T11:41:15.021Z,52.50
2017-08-24T11:43:44.405Z,51.00
2017-08-24T11:46:12.120Z,49.50
2017-08-24T11:48:39.582Z,50.30
2017-08-24T11:51:07.445Z,51.30
2017-08-24T11:53:34.966Z,51.10
2017-08-24T11:56:02.459Z,50.50
2017-08-24T11:58:29.926Z,50.70
2017-08-24T12:00:57.407Z,50.70
2017-08-24T12:03:24.953Z,50.80
2017-08-24T12:05:52.447Z,50.80
2017-08-24T12:08:19.891Z,51.90
2017-08-24T12:10:47.355Z,52.40
2017-08-24T12:13:14.887Z,52.30
2017-08-24T12:15:42.358Z,52.50
2017-08-24T12:18:09.857Z,52.20
2017-08-24T12:20:37.555Z,51.80
2017-08-24T12:23:05.056Z,52.90
2017-08-24T12:25:34.106Z,52.30
2017-08-24T12:28:01.622Z,51.30
2017-08-24T12:30:29.078Z,52.10
2017-08-24T12:32:56.711Z,51.80
2017-08-24T12:35:24.434Z,51.90
2017-08-24T12:37:51.896Z,51.70
2017-08-24T12:40:19.406Z,51.80
2017-08-24T12:42:46.894Z,52.10
2017-08-24T12:45:14.394Z,52.20
2017-08-24T12:47:41.877Z,53.20
2017-08-24T12:50:09.392Z,52.30
2017-08-24T12:52:36.898Z,52.30
2017-08-24T12:55:04.381Z,52.30
2017-08-24T12:57:31.853Z,53.50
2017-08-24T12:59:59.345Z,53.00
2017-08-24T13:02:27.917Z,52.80
2017-08-24T13:04:55.603Z,52.20
2017-08-24T13:07:23.090Z,52.70
2017-08-24T13:09:50.594Z,51.70
2017-08-24T13:12:18.135Z,51.80
2017-08-24T13:14:45.697Z,52.10
2017-08-24T13:17:13.182Z,52.40
2017-08-24T13:19:40.692Z,50.80
2017-08-24T13:22:08.436Z,50.70
2017-08-24T13:24:35.903Z,51.70
2017-08-24T13:27:03.344Z,51.50
2017-08-24T13:29:30.942Z,50.50
2017-08-24T13:31:58.402Z,51.00
2017-08-24T13:34:25.851Z,50.30
2017-08-24T13:36:53.402Z,50.30
2017-08-24T13:39:20.869Z,51.10
2017-08-24T13:41:48.321Z,49.40
2017-08-24T13:44:16.011Z,50.50
2017-08-24T13:46:43.487Z,50.10
2017-08-24T13:49:10.976Z,50.10
2017-08-24T13:51:38.601Z,48.40
2017-08-24T13:54:06.176Z,49.10
2017-08-24T13:56:33.655Z,47.80
2017-08-24T13:59:01.402Z,48.40
2017-08-24T14:01:28.882Z,47.80
2017-08-24T14:03:56.509Z,46.90
2017-08-24T14:06:24.063Z,46.00
2017-08-24T14:08:51.524Z,46.10
2017-08-24T14:11:18.978Z,45.50
2017-08-24T14:13:46.533Z,45.70
2017-08-24T14:16:14.002Z,44.90
2017-08-24T14:18:41.489Z,45.80
2017-08-24T14:21:09.178Z,45.20
2017-08-24T14:23:36.655Z,43.90
2017-08-24T14:26:04.621Z,44.80
2017-08-24T14:28:32.271Z,45.10
2017-08-24T14:30:59.763Z,45.30
2017-08-24T14:33:27.216Z,46.30
2017-08-24T14:35:54.773Z,47.00
2017-08-24T14:38:23.115Z,46.80
2017-08-24T14:40:50.610Z,47.10
2017-08-24T14:43:18.137Z,44.20
2017-08-24T14:45:45.625Z,44.90
2017-08-24T14:48:13.102Z,44.80
2017-08-24T14:50:40.635Z,45.00
2017-08-24T14:53:08.348Z,44.80
2017-08-24T14:55:35.819Z,43.30
2017-08-24T14:58:03.395Z,43.90
2017-08-24T15:00:30.868Z,44.00
2017-08-24T15:02:58.345Z,43.90
2017-08-24T15:05:25.920Z,44.60
2017-08-24T15:07:53.395Z,44.60
2017-08-24T15:10:20.858Z,44.90
2017-08-24T15:12:48.458Z,44.80
2017-08-24T15:15:15.957Z,45.90
2017-08-24T15:17:43.430Z,45.20
2017-08-24T15:20:10.936Z,44.90
2017-08-24T15:22:38.416Z,44.80
2017-08-24T15:25:06.080Z,45.50
2017-08-24T15:27:33.839Z,45.20
2017-08-24T15:30:01.314Z,45.50
2017-08-24T15:32:28.805Z,45.60
2017-08-24T15:34:56.308Z,45.70
2017-08-24T15:37:24.322Z,45.80
2017-08-24T15:39:51.821Z,45.20
2017-08-24T15:42:19.356Z,45.00
2017-08-24T15:44:46.937Z,44.20
2017-08-24T15:47:14.675Z,44.10
2017-08-24T15:49:42.172Z,44.10
2017-08-24T15:52:09.648Z,44.00
2017-08-24T15:54:38.164Z,44.00
2017-08-24T15:57:05.637Z,44.90
2017-08-24T15:59:33.111Z,45.00
2017-08-24T16:02:00.585Z,45.10
2017-08-24T16:04:28.059Z,45.10
2017-08-24T16:06:55.584Z,45.30
2017-08-24T16:09:24.038Z,45.00
2017-08-24T16:11:51.509Z,45.10
2017-08-24T16:14:18.966Z,45.10
2017-08-24T16:16:46.477Z,45.50
2017-08-24T16:19:13.948Z,45.80
2017-08-24T16:21:41.911Z,46.20
2017-08-24T16:24:09.443Z,46.90
2017-08-24T16:26:36.891Z,46.70
2017-08-24T16:29:04.347Z,47.00
2017-08-24T16:31:32.022Z,47.00
2017-08-24T16:33:59.509Z,46.20
2017-08-24T16:36:27.003Z,46.00
2017-08-24T16:38:54.540Z,46.40
2017-08-24T16:41:21.996Z,45.80
2017-08-24T16:43:49.457Z,46.00
2017-08-24T16:46:16.919Z,46.20
2017-08-24T16:48:44.427Z,46.00
2017-08-24T16:51:12.599Z,44.90
2017-08-24T16:53:40.602Z,45.40
2017-08-24T16:56:08.226Z,45.10
2017-08-24T16:58:35.928Z,45.90
2017-08-24T17:01:03.412Z,46.00
2017-08-24T17:03:31.081Z,46.40
2017-08-24T17:05:58.577Z,46.50
2017-08-24T17:08:26.045Z,46.90
2017-08-24T17:10:53.516Z,47.00
2017-08-24T17:13:21.081Z,47.10
2017-08-24T17:15:48.876Z,47.50
2017-08-24T17:18:16.468Z,47.60
2017-08-24T17:20:43.939Z,47.30
2017-08-24T17:23:11.443Z,47.40
2017-08-24T17:25:38.932Z,47.80
2017-08-24T17:28:06.410Z,47.60
2017-08-24T17:30:34.382Z,47.70
2017-08-24T17:33:01.875Z,47.90
2017-08-24T17:35:29.372Z,48.30
2017-08-24T17:37:58.031Z,48.20
2017-08-24T17:40:25.541Z,48.50
2017-08-24T17:42:53.008Z,48.50
2017-08-24T17:45:20.494Z,48.60
2017-08-24T17:47:48.029Z,48.80
2017-08-24T17:50:15.517Z,49.20
2017-08-24T17:52:42.965Z,49.20
2017-08-24T17:55:10.701Z,49.40
2017-08-24T17:57:38.237Z,49.60
2017-08-24T18:00:06.661Z,49.40
2017-08-24T18:02:34.143Z,49.40
2017-08-24T18:05:01.603Z,49.40
2017-08-24T18:07:29.059Z,49.50
2017-08-24T18:09:58.324Z,49.60
2017-08-24T18:12:25.782Z,49.90
2017-08-24T18:14:53.266Z,49.80
2017-08-24T18:17:20.995Z,50.40
2017-08-24T18:19:48.487Z,50.30
2017-08-24T18:22:15.958Z,50.90
2017-08-24T18:24:43.506Z,51.00
2017-08-24T18:27:11.047Z,51.20
2017-08-24T18:29:38.500Z,51.20
2017-08-24T18:32:06.013Z,51.50
2017-08-24T18:34:33.467Z,52.30
2017-08-24T18:37:00.973Z,52.30
2017-08-24T18:39:28.457Z,52.60
2017-08-24T18:41:55.925Z,52.70
2017-08-24T18:44:23.454Z,52.60
2017-08-24T18:46:50.975Z,52.90
2017-08-24T18:49:18.741Z,53.30
2017-08-24T18:51:47.268Z,53.70
2017-08-24T18:54:14.757Z,53.90
2017-08-24T18:56:43.504Z,53.90
2017-08-24T18:59:11.366Z,54.20
2017-08-24T19:01:38.923Z,54.80
2017-08-24T19:04:06.926Z,55.10
2017-08-24T19:06:34.628Z,55.50
2017-08-24T19:09:02.234Z,55.70
2017-08-24T19:11:30.005Z,55.90
2017-08-24T19:13:57.712Z,56.30
2017-08-24T19:16:26.347Z,56.70
2017-08-24T19:18:53.838Z,57.00
2017-08-24T19:21:21.336Z,56.90
2017-08-24T19:23:48.997Z,57.00
2017-08-24T19:26:16.563Z,57.20
2017-08-24T19:28:44.143Z,57.30
2017-08-24T19:31:11.863Z,57.60
2017-08-24T19:33:40.607Z,57.40
2017-08-24T19:36:08.308Z,57.60
2017-08-24T19:38:36.383Z,57.70
2017-08-24T19:41:03.984Z,57.80
2017-08-24T19:43:31.803Z,58.10
2017-08-24T19:45:59.478Z,58.20
2017-08-24T19:48:27.150Z,58.20
2017-08-24T19:50:54.723Z,58.10
2017-08-24T19:53:22.552Z,58.20
2017-08-24T19:55:50.165Z,58.50
2017-08-24T19:58:17.679Z,58.70
2017-08-24T20:00:45.226Z,59.00
2017-08-24T20:03:12.802Z,59.00
2017-08-24T20:05:40.293Z,59.10
2017-08-24T20:08:07.824Z,59.20
2017-08-24T20:10:36.020Z,59.40
2017-08-24T20:13:03.586Z,59.40
2017-08-24T20:15:31.049Z,59.40
2017-08-24T20:17:58.539Z,59.50
2017-08-24T20:20:26.306Z,59.70
2017-08-24T20:22:53.831Z,59.60
2017-08-24T20:25:21.419Z,59.90
2017-08-24T20:27:48.951Z,59.70
2017-08-24T20:30:16.448Z,60.10
2017-08-24T20:32:43.928Z,60.20
2017-08-24T20:35:11.466Z,60.30
2017-08-24T20:37:38.949Z,60.50
2017-08-24T20:40:06.435Z,60.80
2017-08-24T20:42:33.974Z,61.00
2017-08-24T20:45:01.453Z,61.00
2017-08-24T20:47:29.416Z,61.10
2017-08-24T20:49:57.124Z,61.10
2017-08-24T20:52:24.599Z,61.10
2017-08-24T20:54:52.093Z,61.20
2017-08-24T20:57:19.816Z,61.30
2017-08-24T20:59:47.303Z,61.30
2017-08-24T21:02:14.844Z,61.50
2017-08-24T21:04:42.341Z,61.70
2017-08-24T21:07:09.992Z,61.90
2017-08-24T21:09:37.507Z,62.00
2017-08-24T21:12:05.245Z,62.20
2017-08-24T21:14:32.715Z,62.10
2017-08-24T21:17:00.174Z,62.20
2017-08-24T21:19:27.734Z,62.40
2017-08-24T21:21:55.217Z,62.50
2017-08-24T21:24:22.701Z,62.40
2017-08-24T21:26:50.358Z,62.60
2017-08-24T21:29:17.842Z,62.70
2017-08-24T21:31:45.318Z,62.80
2017-08-24T21:34:12.959Z,62.80
2017-08-24T21:36:40.474Z,63.00
2017-08-24T21:39:07.970Z,63.00
2017-08-24T21:41:35.442Z,63.30
2017-08-24T21:44:02.877Z,63.30
2017-08-24T21:46:30.757Z,63.50
2017-08-24T21:48:58.234Z,63.50
2017-08-24T21:51:25.667Z,63.50
2017-08-24T21:53:53.387Z,63.50
2017-08-24T21:56:20.856Z,63.70
2017-08-24T21:58:48.347Z,63.70
2017-08-24T22:01:16.092Z,63.80
2017-08-24T22:03:43.804Z,63.90
2017-08-24T22:06:11.287Z,64.10
2017-08-24T22:08:38.787Z,64.30
2017-08-24T22:11:06.353Z,64.40
2017-08-24T22:13:33.853Z,64.40
2017-08-24T22:16:01.373Z,64.50
2017-08-24T22:18:28.879Z,64.60
2017-08-24T22:20:56.386Z,64.60
2017-08-24T22:23:24.846Z,64.80
2017-08-24T22:25:52.307Z,64.70
2017-08-24T22:28:19.835Z,64.60
2017-08-24T22:30:47.606Z,64.60
2017-08-24T22:33:15.100Z,64.70
2017-08-24T22:35:42.563Z,65.10
2017-08-24T22:38:10.876Z,65.10
2017-08-24T22:40:38.340Z,65.10
2017-08-24T22:43:06.278Z,65.30
2017-08-24T22:45:33.842Z,65.50
2017-08-24T22:48:01.354Z,65.50
2017-08-24T22:50:28.869Z,65.50
2017-08-24T22:52:56.568Z,65.70
2017-08-24T22:55:29.930Z,65.80
2017-08-24T22:58:03.075Z,65.80
2017-08-24T23:00:36.221Z,65.80
2017-08-24T23:03:09.642Z,65.70
2017-08-24T23:05:37.171Z,65.90
2017-08-24T23:08:04.625Z,66.00
2017-08-24T23:10:32.141Z,66.10
2017-08-24T23:12:59.648Z,66.30
2017-08-24T23:15:27.147Z,66.60
2017-08-24T23:17:54.674Z,66.60
2017-08-24T23:20:22.152Z,66.60
2017-08-24T23:22:49.688Z,66.60
2017-08-24T23:25:17.303Z,66.70
2017-08-24T23:27:44.766Z,66.70
2017-08-24T23:30:12.224Z,66.80
2017-08-24T23:32:39.738Z,67.10
2017-08-24T23:35:07.230Z,67.30
2017-08-24T23:37:34.657Z,67.40
2017-08-24T23:40:02.374Z,67.80
2017-08-24T23:42:29.835Z,67.50
2017-08-24T23:44:57.276Z,67.60
2017-08-24T23:47:25.031Z,67.90
2017-08-24T23:49:52.505Z,68.00
2017-08-24T23:52:19.967Z,68.00
2017-08-24T23:54:47.636Z,67.70
2017-08-24T23:57:15.113Z,68.00
2017-08-24T23:59:42.585Z,67.70
